• Join FlightAware (Why Join?)
  • Login
  • US Flag 
06:35AM EDT


 

Airport Tracker/Info


-or-


 

Live Flight TrackerFlight Track Log ✈ UAL692 ✈ 19-Jul-2013 ✈ KIAH - KPIT

Flight Track Log - Related Links

Times and Time Zones

All times are in EDT time to prevent confusion due to time zone crossing. See the UAL692 flight status page for this flight to view local times or setup timezone preferences in your user account.

Time Position Orientation Groundspeed Altitude Reporting Facility
EDT Latitude Longitude Course Direction KTS MPH feet Rate Location/Type
08:15AM 29.9617 -95.3436 30° Northeast 148 170 600  Level Houston Center
08:16AM 29.9506 -95.3836 252° West 213 245 2,200 1,620 Climbing Houston Center
08:17AM 29.9778 -95.3872 353° North 226 260 3,100 2,340 Climbing Houston Center
08:18AM 30.2515 -95.1075 28° Northeast  Level FlightAware Approximate
08:18AM 30.0356 -95.3422 34° Northeast 255 293 5,900  Level Houston Center
08:19AM 30.3472 -95.0423 35° Northeast  Level FlightAware Approximate
08:19AM 30.0964 -95.2867 38° Northeast 273 314 9,600  Level Houston Center
08:20AM 30.4356 -94.9644 41° Northeast  Level FlightAware Approximate
08:20AM 30.1589 -95.2311 38° Northeast 279 321 11,700  Level Houston Center
08:21AM 30.5299 -94.8968 30° Northeast  Level FlightAware Approximate
08:21AM 30.2489 -95.1486 38° Northeast 335 386 14,600  Level Houston Center
08:22AM 30.3256 -95.0794 38° Northeast 345 397 17,000 2,040 Climbing Houston Center
08:23AM 30.4061 -95.0056 38° Northeast 360 414 18,900 1,860 Climbing Houston Center
08:24AM 30.4911 -94.9383 34° Northeast 364 419 20,900 1,800 Climbing Houston Center
08:25AM 30.5825 -94.8689 33° Northeast 384 442 22,600 1,560 Climbing Houston Center
08:26AM 30.6764 -94.7972 33° Northeast 398 458 24,100 1,560 Climbing Houston Center
08:27AM 30.7706 -94.7242 34° Northeast 405 466 25,800 1,500 Climbing Houston Center
08:28AM 30.8672 -94.6497 33° Northeast 414 476 27,200 1,560 Climbing Houston Center
08:29AM 30.9844 -94.5586 34° Northeast 423 487 29,100 1,500 Climbing Houston Center
08:30AM 31.0811 -94.4831 34° Northeast 423 487 30,300 1,080 Climbing Houston Center
08:31AM 31.1814 -94.4064 33° Northeast 434 499 31,400 1,380 Climbing Houston Center
08:32AM 31.2833 -94.3269 34° Northeast 442 509 33,200 1,440 Climbing Houston Center
08:33AM 31.3803 -94.2506 34° Northeast 430 495 34,400 840 Climbing Houston Center
08:34AM 31.4775 -94.1747 34° Northeast 426 490 35,000 240 Climbing Houston Center
08:35AM 31.5931 -94.0858 33° Northeast 417 480 35,000 240 Level Houston Center
08:36AM 31.6889 -94.0097 34° Northeast 418 481 35,500 660 Climbing Houston Center
08:37AM 31.7839 -93.9347 34° Northeast 414 476 36,400 720 Climbing Houston Center
08:38AM 31.8806 -93.8586 34° Northeast 411 473 37,000 240 Climbing Houston Center
08:39AM 31.9747 -93.7825 34° Northeast 410 472 37,000  Level Houston Center
08:40AM 32.0675 -93.7100 34° Northeast 410 472 37,000  Level Houston Center
08:41AM 32.1283 -93.6625 33° Northeast 410 472 37,000  Level Fort Worth Center
08:42AM 32.2319 -93.5700 37° Northeast 421 484 37,000  Level Fort Worth Center
08:43AM 32.3258 -93.4972 33° Northeast 416 479 37,000  Level Fort Worth Center
08:44AM 32.4214 -93.4217 34° Northeast 416 479 37,000  Level Fort Worth Center
08:45AM 32.4967 -93.3567 36° Northeast 411 473 37,000 -60 Level Fort Worth Center
08:46AM 32.6086 -93.2678 34° Northeast 411 473 36,900 -240 Descending Fort Worth Center
08:47AM 32.7061 -93.1919 33° Northeast 410 472 36,600  Descending Fort Worth Center
08:48AM 32.8058 -93.1106 34° Northeast 424 488 37,000 180 Climbing Fort Worth Center
08:49AM 32.9053 -93.0292 34° Northeast 430 495 37,000  Level Fort Worth Center
08:51AM 33.0850 -92.8836 34° Northeast 439 505 37,000  Level Memphis Center
08:52AM 33.1847 -92.8022 34° Northeast 434 499 37,000  Level Memphis Center
08:53AM 33.2761 -92.7103 40° Northeast 429 494 37,000 -60 Level Memphis Center
08:54AM 33.3533 -92.6031 49° Northeast 424 488 36,900 -60 Descending Memphis Center
08:55AM 33.4242 -92.4903 53° Northeast 424 488 36,900  Level Memphis Center
08:56AM 33.4947 -92.3800 52° Northeast 418 481 37,000  Climbing Memphis Center
08:57AM 33.5675 -92.2694 52° Northeast 418 481 36,900  Descending Memphis Center
08:58AM 33.6422 -92.1611 50° Northeast 418 481 37,000  Climbing Memphis Center
08:59AM 33.7147 -92.0478 52° Northeast 418 481 37,000  Level Memphis Center
09:00AM 33.7892 -91.9344 52° Northeast 418 481 37,000  Level Memphis Center
09:01AM 33.8617 -91.8206 53° Northeast 423 487 37,000  Level Memphis Center
09:02AM 33.9317 -91.7092 53° Northeast 423 487 37,000  Level Memphis Center
09:03AM 34.0081 -91.5950 51° Northeast 423 487 37,000  Level Memphis Center
09:04AM 34.0781 -91.4806 54° Northeast 428 493 37,000 -60 Level Memphis Center
09:05AM 34.1500 -91.3686 52° Northeast 428 493 36,900 -60 Descending Memphis Center
09:06AM 34.2239 -91.2564 51° Northeast 428 493 36,900  Level Memphis Center
09:07AM 34.2869 -91.1542 53° Northeast 428 493 36,900  Level Memphis Center
09:08AM 34.3608 -91.0364 53° Northeast 428 493 37,000  Climbing Memphis Center
09:09AM 34.4344 -90.9211 52° Northeast 433 498 37,000  Level Memphis Center
09:10AM 34.5058 -90.8083 52° Northeast 433 498 37,000  Level Memphis Center
09:11AM 34.5772 -90.6900 54° Northeast 428 493 37,000  Level Memphis Center
09:12AM 34.6503 -90.5767 52° Northeast 428 493 37,000 -60 Level Memphis Center
09:13AM 34.7278 -90.4481 54° Northeast 428 493 36,900 -60 Descending Memphis Center
09:14AM 34.7967 -90.3369 53° Northeast 428 493 36,900  Level Memphis Center
09:15AM 34.8675 -90.2231 53° Northeast 428 493 36,900  Level Memphis Center
09:16AM 34.9425 -90.1114 51° Northeast 423 487 37,000  Climbing Memphis Center
09:17AM 35.0153 -89.9944 53° Northeast 423 487 37,000  Level Memphis Center
09:18AM 35.0772 -89.8878 55° Northeast 423 487 37,000  Level Memphis Center
09:19AM 35.1436 -89.7653 56° Northeast 438 504 37,000  Level Memphis Center
09:20AM 35.2097 -89.6431 56° Northeast 433 498 37,000  Level Memphis Center
09:21AM 35.2758 -89.5253 55° Northeast 425 489 37,000  Level Memphis Center
09:22AM 35.3497 -89.3897 56° Northeast 425 489 37,000  Level Memphis Center
09:23AM 35.4197 -89.2667 55° Northeast 425 489 37,000  Level Memphis Center
09:24AM 35.4875 -89.1508 54° Northeast 425 489 37,000  Level Memphis Center
09:25AM 35.5531 -89.0275 57° Northeast 425 489 37,000 -60 Level Memphis Center
09:26AM 35.6203 -88.9039 56° Northeast 425 489 36,900 -60 Descending Memphis Center
09:27AM 35.6814 -88.7853 58° Northeast 420 483 36,900  Level Memphis Center
09:28AM 35.7486 -88.6611 56° Northeast 420 483 37,000  Climbing Memphis Center
09:29AM 35.8158 -88.5394 56° Northeast 420 483 37,000  Level Memphis Center
09:30AM 35.8808 -88.4278 54° Northeast 425 489 37,000  Level Memphis Center
09:31AM 35.9475 -88.3033 56° Northeast 431 496 37,000  Level Memphis Center
09:32AM 36.0144 -88.1808 56° Northeast 431 496 37,000  Level Memphis Center
09:33AM 36.0811 -88.0611 55° Northeast 426 490 37,000  Level Memphis Center
09:34AM 36.1475 -87.9358 57° Northeast 431 496 37,000  Level Memphis Center
09:35AM 36.2158 -87.8128 55° Northeast 436 502 37,000  Level Memphis Center
09:36AM 36.2819 -87.6872 57° Northeast 436 502 37,000  Level Memphis Center
09:37AM 36.3539 -87.5483 57° Northeast 436 502 37,000 -60 Level Memphis Center
09:38AM 36.4219 -87.4247 56° Northeast 430 495 36,900  Descending Memphis Center
09:39AM 36.4878 -87.2983 57° Northeast 437 503 37,000  Climbing Memphis Center
09:40AM 36.5553 -87.1692 57° Northeast 437 503 37,000  Level Memphis Center
09:41AM 36.6228 -87.0425 56° Northeast 442 509 37,000  Level Memphis Center
09:42AM 36.6881 -86.9131 58° Northeast 447 514 37,000  Level Memphis Center
09:43AM 36.7494 -86.7964 57° Northeast 447 514 37,000  Level Memphis Center
09:44AM 36.8144 -86.6692 57° Northeast 442 509 37,000  Level Memphis Center
09:45AM 36.8794 -86.5417 57° Northeast 442 509 37,000 -60 Level Memphis Center
09:46AM 36.9422 -86.4142 58° Northeast 442 509 36,900  Descending Memphis Center
09:47AM 37.0125 -86.2542 61° Northeast 438 504 37,000  Climbing Indianapolis Center
09:48AM 37.0717 -86.1181 61° Northeast 440 506 37,000  Level Indianapolis Center
09:49AM 37.1314 -85.9817 61° Northeast 441 507 37,000  Level Indianapolis Center
09:50AM 37.1914 -85.8456 61° Northeast 442 509 37,000  Level Indianapolis Center
09:51AM 37.2503 -85.7083 62° Northeast 443 510 37,000  Level Indianapolis Center
09:52AM 37.3125 -85.5650 61° Northeast 440 506 37,000  Level Indianapolis Center
09:53AM 37.3733 -85.4239 61° Northeast 441 507 37,000  Level Indianapolis Center
09:54AM 37.4319 -85.2875 62° Northeast 441 507 37,000  Level Indianapolis Center
09:55AM 37.4900 -85.1492 62° Northeast 446 513 37,000  Level Indianapolis Center
09:56AM 37.5586 -84.9900 61° Northeast 441 507 37,000  Level Indianapolis Center
09:57AM 37.6158 -84.8506 63° Northeast 445 512 37,000  Level Indianapolis Center
09:58AM 37.6742 -84.7119 62° Northeast 445 512 37,000  Level Indianapolis Center
09:59AM 37.7314 -84.5739 62° Northeast 442 509 37,000 -60 Level Indianapolis Center
10:00AM 37.7900 -84.4353 62° Northeast 445 512 36,900  Descending Indianapolis Center
10:01AM 37.8478 -84.2956 62° Northeast 447 514 37,000  Climbing Indianapolis Center
10:02AM 37.9150 -84.1328 62° Northeast 447 514 37,000  Level Indianapolis Center
10:03AM 37.9725 -83.9947 62° Northeast 442 509 37,000 -60 Level Indianapolis Center
10:04AM 38.0294 -83.8542 63° Northeast 444 511 36,900  Descending Indianapolis Center
10:05AM 38.0864 -83.7139 63° Northeast 445 512 37,000  Climbing Indianapolis Center
10:07AM 38.1442 -83.5728 62° Northeast 447 514 37,000  Level Indianapolis Center
10:08AM 38.2006 -83.4339 63° Northeast 442 509 37,000  Level Indianapolis Center
10:09AM 38.2656 -83.2703 63° Northeast 442 509 37,000 -60 Level Indianapolis Center
10:10AM 38.3211 -83.1303 63° Northeast 441 507 36,900  Descending Indianapolis Center
10:11AM 38.3772 -82.9925 63° Northeast 439 505 37,000  Climbing Indianapolis Center
10:12AM 38.4278 -82.8511 65° Northeast 438 504 36,900 -540 Descending Indianapolis Center
10:13AM 38.4717 -82.7056 69° East 440 506 36,000 -1,260 Descending Indianapolis Center
10:14AM 38.5169 -82.5572 69° East 446 513 34,400 -1,680 Descending Indianapolis Center
10:15AM 38.5719 -82.3886 67° East 457 526 32,500 -1,800 Descending Indianapolis Center
10:16AM 38.6206 -82.2397 67° East 455 524 30,700 -1,620 Descending Indianapolis Center
10:17AM 38.6789 -82.1039 61° Northeast 440 506 29,200 -1,260 Descending Indianapolis Center
10:18AM 38.7733 -82.0122 37° Northeast 426 490 28,200 -1,020 Descending Indianapolis Center
10:19AM 38.8694 -81.9203 37° Northeast 426 490 27,200 -1,020 Descending Indianapolis Center
10:20AM 38.9633 -81.8306 37° Northeast 419 482 26,200 -1,080 Descending Indianapolis Center
10:21AM 39.0761 -81.7242 36° Northeast 415 478 25,000 -1,080 Descending Indianapolis Center
10:22AM 39.1706 -81.6347 36° Northeast 416 479 24,000 -600 Descending Indianapolis Center
10:23AM 39.2619 -81.5461 37° Northeast 412 474 23,800 -600 Descending Indianapolis Center
10:24AM 39.3517 -81.4592 37° Northeast 405 466 22,800 -1,020 Descending Indianapolis Center
10:25AM 39.4419 -81.3725 37° Northeast 402 463 21,800 -900 Descending Indianapolis Center
10:26AM 39.5303 -81.2881 36° Northeast 396 456 21,000 -480 Descending Indianapolis Center
10:27AM 39.6167 -81.2042 37° Northeast 389 448 20,900 -1,440 Descending Indianapolis Center
10:28AM 39.7044 -81.1217 36° Northeast 388 447 18,100 -2,520 Descending Indianapolis Center
10:29AM 39.8100 -81.0189 37° Northeast 392 451 15,700 -2,220 Descending Indianapolis Center
10:30AM 39.8950 -80.9353 37° Northeast 383 441 13,600 -1,980 Descending Indianapolis Center
10:31AM 39.9828 -80.8472 38° Northeast 373 429 11,700 -1,680 Descending Indianapolis Center
10:32AM 40.0314 -80.8000 37° Northeast 365 420 10,700 -1,020 Descending Cleveland Center
10:33AM 40.1006 -80.7106 45° Northeast 353 406 10,000 -360 Descending Cleveland Center
10:34AM 40.1692 -80.6211 45° Northeast 343 395 10,000  Level Cleveland Center
10:35AM 40.2381 -80.5342 44° Northeast 343 395 10,000 -240 Level Cleveland Center
10:36AM 40.3028 -80.4497 45° Northeast 331 381 9,600 -900 Descending Cleveland Center
10:37AM 40.3608 -80.3678 47° Northeast 316 364 8,200 -1,380 Descending Cleveland Center
10:38AM 40.3731 -80.2642 81° East 283 326 6,900 -1,260 Descending Cleveland Center
10:39AM 40.3833 -80.1578 83° East 282 325 5,700 -780 Descending Cleveland Center
10:40AM 40.3933 -80.0625 82° East 275 316 5,400 -300 Descending Cleveland Center